Time;durP1;ratioP1;P1;durP2;ratioP2;P2;SDS_P1;SDS_P2;PMS_P1;PMS_P2;Temp;Humidity;BMP_temperature;BMP_pressure;BME280_temperature;BME280_humidity;BME280_pressure;Samples;Min_cycle;Max_cycle;Signal;HPM_P1;HPM_P2
2021/10/08 00:03:06;;;;;;;;;;;10.10;99.90;;;;;;8392588;28;19908;-64
2021/10/08 00:07:07;;;;;;;;;;;10.10;99.90;;;;;;8393527;28;20372;-63
2021/10/08 00:11:08;;;;;;;;;;;10.20;99.90;;;;;;8393912;28;20381;-63
2021/10/08 00:15:09;;;;;;;;;;;10.30;99.90;;;;;;8393188;28;19912;-63
2021/10/08 00:19:09;;;;;;;;;;;10.10;99.90;;;;;;8392281;28;19916;-63
2021/10/08 00:23:09;;;;;;;;;;;10.10;99.90;;;;;;8392131;28;19923;-63
2021/10/08 00:27:10;;;;;;;;;;;10.20;99.90;;;;;;8393273;28;20007;-64
2021/10/08 00:31:10;;;;;;;;;;;10.20;99.90;;;;;;8392725;28;19920;-63
2021/10/08 00:35:11;;;;;;;;;;;10.10;99.90;;;;;;8392825;28;20379;-63
2021/10/08 00:39:11;;;;;;;;;;;10.20;99.90;;;;;;8393092;28;19909;-64
2021/10/08 00:43:12;;;;;;;;;;;10.10;99.90;;;;;;8393187;28;19908;-63
2021/10/08 00:47:13;;;;;;;;;;;10.20;99.90;;;;;;8392374;28;19909;-63
2021/10/08 00:51:14;;;;;;;;;;;10.10;99.90;;;;;;8392768;28;19977;-63
2021/10/08 00:55:14;;;;;;;;;;;10.20;99.90;;;;;;8392139;28;19912;-63
2021/10/08 00:59:15;;;;;;;;;;;10.10;99.90;;;;;;8392680;28;19920;-64
2021/10/08 01:03:17;;;;;;;;;;;10.10;99.90;;;;;;8392548;28;20280;-63
2021/10/08 01:07:17;;;;;;;;;;;10.20;99.90;;;;;;8391986;28;20325;-63
2021/10/08 01:11:20;;;;;;;;;;;10.10;99.90;;;;;;8392550;28;19909;-63
2021/10/08 01:15:21;;;;;;;;;;;10.20;99.90;;;;;;8390688;28;19920;-64
2021/10/08 01:19:21;;;;;;;;;;;10.10;99.90;;;;;;8391186;28;19908;-63
2021/10/08 01:23:22;;;;;;;;;;;10.20;99.90;;;;;;8390783;28;19923;-63
2021/10/08 01:27:22;;;;;;;;;;;10.10;99.90;;;;;;8391802;28;19909;-63
2021/10/08 01:31:23;;;;;;;;;;;10.10;99.90;;;;;;8392077;28;19912;-64
2021/10/08 01:35:24;;;;;;;;;;;10.10;99.90;;;;;;8391654;28;20421;-63
2021/10/08 01:39:24;;;;;;;;;;;10.10;99.90;;;;;;8391051;28;20268;-64
2021/10/08 01:43:24;;;;;;;;;;;10.20;99.90;;;;;;8397068;28;20331;-64
2021/10/08 01:47:25;;;;;;;;;;;10.10;99.90;;;;;;8397826;28;19916;-63
2021/10/08 01:51:26;;;;;;;;;;;10.10;99.90;;;;;;8398070;28;19913;-63
2021/10/08 01:55:26;;;;;;;;;;;10.20;99.90;;;;;;8397554;28;19923;-63
2021/10/08 01:59:27;;;;;;;;;;;10.10;99.90;;;;;;8396723;28;19995;-63
2021/10/08 02:03:27;;;;;;;;;;;10.00;99.90;;;;;;8396497;28;20322;-63
2021/10/08 02:07:28;;;;;;;;;;;10.10;99.90;;;;;;8397102;28;19909;-64
2021/10/08 02:11:28;;;;;;;;;;;10.10;99.90;;;;;;8397580;28;20319;-63
2021/10/08 02:15:29;;;;;;;;;;;10.20;99.90;;;;;;8395611;28;19947;-63
2021/10/08 02:19:30;;;;;;;;;;;10.20;99.90;;;;;;8396726;28;20011;-63
2021/10/08 02:23:30;;;;;;;;;;;10.30;99.90;;;;;;8395694;28;19985;-63
2021/10/08 02:27:31;;;;;;;;;;;10.30;99.90;;;;;;8396606;28;19915;-63
2021/10/08 02:31:31;;;;;;;;;;;10.30;99.90;;;;;;8397069;28;19912;-63
2021/10/08 02:35:31;;;;;;;;;;;10.20;99.90;;;;;;8396428;28;19947;-63
2021/10/08 02:39:32;;;;;;;;;;;10.10;99.90;;;;;;8396143;28;20003;-63
2021/10/08 02:43:32;;;;;;;;;;;10.10;99.90;;;;;;8396392;28;19909;-63
2021/10/08 02:47:33;;;;;;;;;;;10.00;99.90;;;;;;8394681;28;20323;-63
2021/10/08 02:51:35;;;;;;;;;;;10.00;99.90;;;;;;8393969;28;19908;-63
2021/10/08 02:55:36;;;;;;;;;;;10.10;99.90;;;;;;8390899;28;19927;-64
2021/10/08 02:59:36;;;;;;;;;;;10.00;99.90;;;;;;8378460;28;19912;-63
2021/10/08 03:03:37;;;;;;;;;;;10.00;99.90;;;;;;8377987;28;19927;-63
2021/10/08 03:07:37;;;;;;;;;;;10.10;99.90;;;;;;8378718;28;19923;-63
2021/10/08 03:11:38;;;;;;;;;;;10.10;99.90;;;;;;8368106;28;19917;-63
2021/10/08 03:15:38;;;;;;;;;;;10.00;99.90;;;;;;8372826;28;19913;-63
2021/10/08 03:19:39;;;;;;;;;;;10.00;99.90;;;;;;8384112;28;20557;-63
2021/10/08 03:23:39;;;;;;;;;;;10.00;99.90;;;;;;8394931;28;19916;-63
2021/10/08 03:27:40;;;;;;;;;;;10.10;99.90;;;;;;8378936;28;19917;-63
2021/10/08 03:31:41;;;;;;;;;;;10.00;99.90;;;;;;8361901;28;19912;-63
2021/10/08 03:35:44;;;;;;;;;;;10.00;99.90;;;;;;8361396;28;19943;-63
2021/10/08 03:39:48;;;;;;;;;;;10.10;99.90;;;;;;8391984;28;20329;-64
2021/10/08 03:43:53;;;;;;;;;;;10.00;99.90;;;;;;8394513;28;20371;-63
2021/10/08 03:48:04;;;;;;;;;;;10.00;99.90;;;;;;8393971;28;19947;-63
2021/10/08 03:52:04;;;;;;;;;;;10.00;99.90;;;;;;8390020;28;19916;-64
2021/10/08 03:56:05;;;;;;;;;;;10.00;99.90;;;;;;8390990;28;20401;-64
2021/10/08 04:00:06;;;;;;;;;;;10.10;99.90;;;;;;8392501;28;19934;-64
2021/10/08 04:04:08;;;;;;;;;;;10.10;99.90;;;;;;8391659;28;19909;-64
2021/10/08 04:08:09;;;;;;;;;;;10.00;99.90;;;;;;8393082;28;19962;-64
2021/10/08 04:12:09;;;;;;;;;;;10.00;99.90;;;;;;8391510;28;20431;-64
2021/10/08 04:16:10;;;;;;;;;;;10.10;99.90;;;;;;8392670;28;19915;-64
2021/10/08 04:20:10;;;;;;;;;;;10.10;99.90;;;;;;8392628;28;20274;-65
2021/10/08 04:24:11;;;;;;;;;;;10.10;99.90;;;;;;8393022;28;20007;-64
2021/10/08 04:28:11;;;;;;;;;;;10.10;99.90;;;;;;8393002;28;20350;-65
2021/10/08 04:32:12;;;;;;;;;;;10.10;99.90;;;;;;8392591;28;19977;-64
2021/10/08 04:36:12;;;;;;;;;;;10.10;99.90;;;;;;8391425;28;20279;-65
2021/10/08 04:40:13;;;;;;;;;;;10.10;99.90;;;;;;8392745;28;20046;-64
2021/10/08 04:44:13;;;;;;;;;;;10.10;99.90;;;;;;8392461;28;19909;-64
2021/10/08 04:48:14;;;;;;;;;;;10.10;99.90;;;;;;8375934;28;19913;-64
2021/10/08 04:52:15;;;;;;;;;;;10.10;99.90;;;;;;8359134;28;19909;-64
2021/10/08 04:56:15;;;;;;;;;;;10.00;99.90;;;;;;8368950;28;20383;-65
2021/10/08 05:00:16;;;;;;;;;;;10.10;99.90;;;;;;8357793;28;19913;-65
2021/10/08 05:04:16;;;;;;;;;;;10.10;99.90;;;;;;8358503;28;19919;-65
2021/10/08 05:08:17;;;;;;;;;;;10.10;99.90;;;;;;8356422;28;19999;-64
2021/10/08 05:12:18;;;;;;;;;;;10.10;99.90;;;;;;8358154;28;20360;-65
2021/10/08 05:16:18;;;;;;;;;;;10.00;99.90;;;;;;8388721;28;19912;-64
2021/10/08 05:20:19;;;;;;;;;;;10.10;99.90;;;;;;8398350;28;19909;-64
2021/10/08 05:24:19;;;;;;;;;;;10.10;99.90;;;;;;8398824;28;19909;-65
2021/10/08 05:28:22;;;;;;;;;;;10.00;99.90;;;;;;8388348;28;21206;-65
2021/10/08 05:32:22;;;;;;;;;;;10.00;99.90;;;;;;8368813;28;19913;-63
2021/10/08 05:36:23;;;;;;;;;;;10.20;99.90;;;;;;8393514;28;19916;-67
2021/10/08 05:40:23;;;;;;;;;;;10.20;99.90;;;;;;8396102;28;19944;-66
2021/10/08 05:44:24;;;;;;;;;;;10.30;99.90;;;;;;8397428;28;19912;-67
2021/10/08 05:48:25;;;;;;;;;;;10.30;99.90;;;;;;8397997;28;19908;-66
2021/10/08 05:52:25;;;;;;;;;;;10.30;99.90;;;;;;8370256;28;20414;-65
2021/10/08 05:56:25;;;;;;;;;;;10.40;99.90;;;;;;8367103;28;19916;-66
2021/10/08 06:00:26;;;;;;;;;;;10.40;99.90;;;;;;8364604;28;19962;-62
2021/10/08 06:04:27;;;;;;;;;;;10.40;99.90;;;;;;8364384;28;19909;-63
2021/10/08 06:08:27;;;;;;;;;;;10.50;99.90;;;;;;8361966;28;19962;-64
2021/10/08 06:12:28;;;;;;;;;;;10.40;99.90;;;;;;8381886;28;20573;-63
2021/10/08 06:16:28;;;;;;;;;;;10.50;99.90;;;;;;8384945;28;20269;-63
2021/10/08 06:20:29;;;;;;;;;;;10.50;99.90;;;;;;8377795;28;19966;-62
2021/10/08 06:24:29;;;;;;;;;;;10.60;99.90;;;;;;8379827;28;19916;-63
2021/10/08 06:28:30;;;;;;;;;;;10.70;99.90;;;;;;8378551;28;19908;-63
2021/10/08 06:32:31;;;;;;;;;;;10.80;99.90;;;;;;8379531;28;20381;-63
2021/10/08 06:36:31;;;;;;;;;;;10.80;99.90;;;;;;8378049;28;19909;-62
2021/10/08 06:40:32;;;;;;;;;;;10.90;99.90;;;;;;8371332;28;19936;-63
2021/10/08 06:44:32;;;;;;;;;;;11.00;99.90;;;;;;8365704;28;19913;-63
2021/10/08 06:48:33;;;;;;;;;;;11.20;99.90;;;;;;8370522;28;19958;-63
2021/10/08 06:52:33;;;;;;;;;;;11.20;99.90;;;;;;8386809;28;19966;-63
2021/10/08 06:56:34;;;;;;;;;;;11.20;99.90;;;;;;8395328;28;19915;-63
2021/10/08 07:00:34;;;;;;;;;;;11.10;99.90;;;;;;8395687;28;19919;-63
2021/10/08 07:04:35;;;;;;;;;;;11.20;99.90;;;;;;8395063;28;19916;-63
2021/10/08 07:08:35;;;;;;;;;;;11.20;99.90;;;;;;8386185;28;19925;-63
2021/10/08 07:12:36;;;;;;;;;;;11.10;99.90;;;;;;8368506;28;19925;-63
2021/10/08 07:16:37;;;;;;;;;;;11.20;99.90;;;;;;8364742;28;19986;-63
2021/10/08 07:20:37;;;;;;;;;;;11.20;99.90;;;;;;8362078;28;19967;-63
2021/10/08 07:24:38;;;;;;;;;;;11.40;99.90;;;;;;8363147;28;19961;-69
2021/10/08 07:28:38;;;;;;;;;;;11.40;99.90;;;;;;8379988;28;19935;-69
2021/10/08 07:32:41;;;;;;;;;;;11.40;99.90;;;;;;8394769;28;19957;-69
2021/10/08 07:36:41;;;;;;;;;;;11.50;99.90;;;;;;8394639;28;20428;-69
2021/10/08 07:40:42;;;;;;;;;;;11.70;99.90;;;;;;8387275;28;19935;-63
2021/10/08 07:44:42;;;;;;;;;;;11.60;99.90;;;;;;8364009;28;19912;-63
2021/10/08 07:48:43;;;;;;;;;;;11.70;99.90;;;;;;8392625;28;19912;-64
2021/10/08 07:52:43;;;;;;;;;;;11.50;99.90;;;;;;8393010;28;19917;-63
2021/10/08 07:56:44;;;;;;;;;;;11.40;99.90;;;;;;8420478;28;20002;-64
2021/10/08 08:00:44;;;;;;;;;;;11.60;99.90;;;;;;8427502;28;19908;-63
2021/10/08 08:04:44;;;;;;;;;;;11.70;99.90;;;;;;8378968;28;20010;-64
2021/10/08 08:08:45;;;;;;;;;;;11.80;99.90;;;;;;8361294;28;20027;-63
2021/10/08 08:12:45;;;;;;;;;;;11.80;99.90;;;;;;8393300;28;19917;-63
2021/10/08 08:16:46;;;;;;;;;;;12.00;99.90;;;;;;8388745;28;20004;-63
2021/10/08 08:20:46;;;;;;;;;;;12.10;99.90;;;;;;8379571;28;19917;-64
2021/10/08 08:24:47;;;;;;;;;;;12.10;99.90;;;;;;8381560;28;19912;-63
2021/10/08 08:28:47;;;;;;;;;;;12.20;99.90;;;;;;8383198;28;19913;-63
2021/10/08 08:32:48;;;;;;;;;;;12.10;99.90;;;;;;8364563;28;19956;-62
2021/10/08 08:36:49;;;;;;;;;;;12.20;99.90;;;;;;8371950;28;19916;-63
2021/10/08 08:40:49;;;;;;;;;;;12.20;99.90;;;;;;8374258;28;19912;-63
2021/10/08 08:44:50;;;;;;;;;;;12.30;99.90;;;;;;8370588;28;19955;-62
2021/10/08 08:48:50;;;;;;;;;;;12.50;99.90;;;;;;8375355;28;20007;-64
2021/10/08 08:52:51;;;;;;;;;;;12.60;99.90;;;;;;8380363;28;19916;-64
2021/10/08 08:56:51;;;;;;;;;;;12.70;99.90;;;;;;8379512;28;19920;-64
2021/10/08 09:00:56;;;;;;;;;;;12.90;99.90;;;;;;8382508;28;19919;-62
2021/10/08 09:04:56;;;;;;;;;;;13.10;99.90;;;;;;8381206;28;19952;-63
2021/10/08 09:08:57;;;;;;;;;;;13.30;99.90;;;;;;8378381;28;19920;-63
2021/10/08 09:12:58;;;;;;;;;;;13.40;99.90;;;;;;8372023;28;19959;-63
2021/10/08 09:17:04;;;;;;;;;;;13.50;99.90;;;;;;8371936;28;19913;-63
2021/10/08 09:21:08;;;;;;;;;;;13.60;99.90;;;;;;8369237;28;19935;-62
2021/10/08 09:25:15;;;;;;;;;;;13.80;99.90;;;;;;8375249;28;19916;-63
2021/10/08 09:29:16;;;;;;;;;;;13.80;99.90;;;;;;8373931;28;19940;-63
2021/10/08 09:33:21;;;;;;;;;;;13.70;99.90;;;;;;8380476;28;19939;-63
2021/10/08 09:37:27;;;;;;;;;;;13.60;99.90;;;;;;8386972;28;19966;-63
2021/10/08 09:41:36;;;;;;;;;;;13.60;99.90;;;;;;8372787;28;19909;-62
2021/10/08 09:45:42;;;;;;;;;;;13.50;99.90;;;;;;8379022;28;20271;-63
2021/10/08 09:49:44;;;;;;;;;;;13.60;99.90;;;;;;8373985;28;20299;-63
2021/10/08 09:53:47;;;;;;;;;;;13.60;99.90;;;;;;8363171;28;20015;-63
2021/10/08 09:57:47;;;;;;;;;;;13.70;99.90;;;;;;8363972;28;19916;-63
2021/10/08 10:01:48;;;;;;;;;;;13.60;99.90;;;;;;8372672;28;19913;-63
2021/10/08 10:05:49;;;;;;;;;;;13.60;99.90;;;;;;8389569;28;19913;-63
2021/10/08 10:09:50;;;;;;;;;;;13.90;99.90;;;;;;8383913;28;19920;-64
2021/10/08 10:13:53;;;;;;;;;;;14.30;99.90;;;;;;8368618;28;20026;-62
2021/10/08 10:17:53;;;;;;;;;;;14.50;99.90;;;;;;8376461;28;19986;-63
2021/10/08 10:21:54;;;;;;;;;;;14.60;99.90;;;;;;8376348;28;19917;-63
2021/10/08 10:25:56;;;;;;;;;;;14.70;99.90;;;;;;8378292;28;20359;-63
2021/10/08 10:29:57;;;;;;;;;;;14.80;99.90;;;;;;8378225;28;19938;-63
2021/10/08 10:34:00;;;;;;;;;;;14.80;99.90;;;;;;8373963;28;19928;-63
2021/10/08 10:38:19;;;;;;;;;;;15.30;99.90;;;;;;8387049;28;20345;-63
2021/10/08 10:42:20;;;;;;;;;;;15.40;99.90;;;;;;8379596;28;19908;-64
2021/10/08 10:46:23;;;;;;;;;;;15.30;99.90;;;;;;8379536;28;19924;-63
2021/10/08 10:50:40;;;;;;;;;;;15.60;99.90;;;;;;8363413;28;19909;-62
2021/10/08 10:54:41;;;;;;;;;;;16.00;99.90;;;;;;8376704;28;19963;-63
2021/10/08 10:58:42;;;;;;;;;;;15.60;99.90;;;;;;8385370;28;19913;-62
2021/10/08 11:02:42;;;;;;;;;;;15.90;99.90;;;;;;8374614;28;19913;-64
2021/10/08 11:07:02;;;;;;;;;;;15.70;99.90;;;;;;8388705;28;19917;-63
2021/10/08 11:11:06;;;;;;;;;;;16.00;99.90;;;;;;8376489;28;19947;-62
2021/10/08 11:15:16;;;;;;;;;;;16.40;99.90;;;;;;8383932;28;19929;-69
2021/10/08 11:19:35;;;;;;;;;;;16.80;99.90;;;;;;8394175;28;19917;-70
2021/10/08 11:23:37;;;;;;;;;;;17.20;99.90;;;;;;8393542;28;20286;-69
2021/10/08 11:27:38;;;;;;;;;;;16.70;99.90;;;;;;8393634;28;19916;-70
2021/10/08 11:31:39;;;;;;;;;;;16.90;99.90;;;;;;8394818;28;19971;-70
2021/10/08 11:35:40;;;;;;;;;;;;;;;;;;8393726;28;19943;-69
2021/10/08 11:39:44;;;;;;;;;;;18.30;99.90;;;;;;8368623;28;19913;-69
2021/10/08 11:43:47;;;;;;;;;;;18.90;99.90;;;;;;8370263;28;19919;-63
2021/10/08 11:47:50;;;;;;;;;;;17.70;99.90;;;;;;8372492;28;20007;-63
2021/10/08 11:51:55;;;;;;;;;;;17.40;99.90;;;;;;8373141;28;19920;-64
2021/10/08 11:55:55;;;;;;;;;;;17.40;99.90;;;;;;8384576;28;20264;-63
2021/10/08 11:59:56;;;;;;;;;;;18.00;99.90;;;;;;8377044;28;19916;-63
2021/10/08 12:03:57;;;;;;;;;;;18.60;99.90;;;;;;8360797;28;19917;-63
2021/10/08 12:08:01;;;;;;;;;;;18.60;99.90;;;;;;8365940;28;20362;-63
2021/10/08 12:12:09;;;;;;;;;;;18.40;99.90;;;;;;8393942;28;19908;-63
2021/10/08 12:16:10;;;;;;;;;;;18.30;99.90;;;;;;8392592;28;19959;-64
2021/10/08 12:20:23;;;;;;;;;;;18.80;99.90;;;;;;8393289;28;19909;-63
2021/10/08 12:24:23;;;;;;;;;;;18.30;99.90;;;;;;8391649;28;20398;-64
2021/10/08 12:28:24;;;;;;;;;;;17.60;99.90;;;;;;8393102;28;19956;-63
2021/10/08 12:32:25;;;;;;;;;;;17.50;99.90;;;;;;8367386;28;19955;-63
2021/10/08 12:36:27;;;;;;;;;;;18.20;99.90;;;;;;8385494;28;19924;-63
2021/10/08 12:40:27;;;;;;;;;;;17.80;99.90;;;;;;8391082;28;19955;-63
2021/10/08 12:44:30;;;;;;;;;;;17.30;99.90;;;;;;8392467;28;19912;-64
2021/10/08 12:48:31;;;;;;;;;;;17.00;99.90;;;;;;8392405;28;19913;-62
2021/10/08 12:52:31;;;;;;;;;;;16.80;99.90;;;;;;8391215;28;19915;-63
2021/10/08 12:56:32;;;;;;;;;;;17.20;99.90;;;;;;8388208;28;19920;-62
2021/10/08 13:00:32;;;;;;;;;;;16.80;99.90;;;;;;8392558;28;19961;-63
2021/10/08 13:04:32;;;;;;;;;;;16.40;99.90;;;;;;8389722;28;19912;-63
2021/10/08 13:08:35;;;;;;;;;;;16.40;99.90;;;;;;8392121;28;20003;-63
2021/10/08 13:12:43;;;;;;;;;;;16.80;99.90;;;;;;8392209;28;19909;-63
2021/10/08 13:16:44;;;;;;;;;;;16.70;99.90;;;;;;8391350;28;19912;-63
2021/10/08 13:20:45;;;;;;;;;;;16.50;99.90;;;;;;8388017;28;19955;-62
2021/10/08 13:24:46;;;;;;;;;;;16.20;99.90;;;;;;8390845;28;20214;-63
2021/10/08 13:28:46;;;;;;;;;;;16.20;99.90;;;;;;8392105;28;19915;-63
2021/10/08 13:32:47;;;;;;;;;;;17.30;99.90;;;;;;8390438;28;20454;-63
2021/10/08 13:36:47;;;;;;;;;;;17.90;99.90;;;;;;8393570;28;19908;-63
2021/10/08 13:40:48;;;;;;;;;;;17.70;99.90;;;;;;8397818;28;19917;-63
2021/10/08 13:44:49;;;;;;;;;;;18.80;99.90;;;;;;8396416;28;20367;-63
2021/10/08 13:48:49;;;;;;;;;;;19.90;99.90;;;;;;8367622;28;20291;-63
2021/10/08 13:52:50;;;;;;;;;;;19.60;99.90;;;;;;8363025;28;20291;-63
2021/10/08 13:56:50;;;;;;;;;;;18.70;99.90;;;;;;8364279;28;19909;-63
2021/10/08 14:00:52;;;;;;;;;;;17.70;99.90;;;;;;8366144;28;19952;-63
2021/10/08 14:05:00;;;;;;;;;;;17.00;99.90;;;;;;8363775;28;19913;-63
2021/10/08 14:13:36;;;;;;;;;;;16.90;99.90;;;;;;8324218;28;20012;-63
2021/10/08 14:17:36;;;;;;;;;;;17.10;99.90;;;;;;8377778;28;19916;-63
2021/10/08 14:21:37;;;;;;;;;;;16.90;99.90;;;;;;8380328;28;19966;-63
2021/10/08 14:25:37;;;;;;;;;;;16.60;99.90;;;;;;8393621;28;19950;-63
2021/10/08 14:29:38;;;;;;;;;;;16.80;99.90;;;;;;8376926;28;19995;-64
2021/10/08 14:33:38;;;;;;;;;;;16.90;99.90;;;;;;8377867;28;20003;-63
2021/10/08 14:37:39;;;;;;;;;;;16.90;99.90;;;;;;8377797;28;19915;-64
2021/10/08 14:41:40;;;;;;;;;;;17.10;99.90;;;;;;8378071;28;19961;-64
2021/10/08 14:45:40;;;;;;;;;;;17.50;99.90;;;;;;8376497;28;19913;-64
2021/10/08 14:49:41;;;;;;;;;;;17.60;99.90;;;;;;8375920;28;19909;-63
2021/10/08 14:53:43;;;;;;;;;;;17.60;99.90;;;;;;8378994;28;19912;-64
2021/10/08 14:57:57;;;;;;;;;;;17.60;99.90;;;;;;8380117;28;19952;-65
2021/10/08 15:01:57;;;;;;;;;;;17.40;99.90;;;;;;8375339;28;20294;-65
2021/10/08 15:05:58;;;;;;;;;;;17.30;99.90;;;;;;8386867;28;20002;-64
2021/10/08 15:09:58;;;;;;;;;;;16.70;99.90;;;;;;8375777;28;19971;-64
2021/10/08 15:13:59;;;;;;;;;;;16.50;99.90;;;;;;8377990;28;19912;-65
2021/10/08 15:18:00;;;;;;;;;;;16.30;99.90;;;;;;8377789;28;19966;-64
2021/10/08 15:22:00;;;;;;;;;;;15.90;99.90;;;;;;8378243;28;19924;-64
2021/10/08 15:26:01;;;;;;;;;;;15.70;99.90;;;;;;8377857;28;19954;-64
2021/10/08 15:30:01;;;;;;;;;;;15.40;99.90;;;;;;8376121;28;19908;-64
2021/10/08 15:34:02;;;;;;;;;;;15.40;99.90;;;;;;8377472;28;19952;-64
2021/10/08 15:38:03;;;;;;;;;;;15.30;99.90;;;;;;8375740;28;19948;-64
2021/10/08 15:42:03;;;;;;;;;;;15.00;99.90;;;;;;8377555;28;19920;-64
2021/10/08 15:46:03;;;;;;;;;;;15.00;99.90;;;;;;8377036;28;19915;-64
2021/10/08 15:50:04;;;;;;;;;;;15.00;99.90;;;;;;8376570;28;20003;-64
2021/10/08 15:54:05;;;;;;;;;;;15.00;99.90;;;;;;8378975;28;19921;-64
2021/10/08 15:58:05;;;;;;;;;;;14.80;99.90;;;;;;8385909;28;19912;-64
2021/10/08 16:02:06;;;;;;;;;;;14.60;99.90;;;;;;8371184;28;19920;-63
2021/10/08 16:06:06;;;;;;;;;;;14.50;99.90;;;;;;8363667;28;19920;-64
2021/10/08 16:10:07;;;;;;;;;;;14.40;99.90;;;;;;8359667;28;20379;-64
2021/10/08 16:14:07;;;;;;;;;;;14.40;99.90;;;;;;8369770;28;20000;-64
2021/10/08 16:18:15;;;;;;;;;;;14.20;99.90;;;;;;8359982;28;20367;-64
2021/10/08 16:22:16;;;;;;;;;;;14.20;99.90;;;;;;8358533;28;20311;-64
2021/10/08 16:26:16;;;;;;;;;;;14.10;99.90;;;;;;8360049;28;19964;-64
2021/10/08 16:30:17;;;;;;;;;;;14.10;99.90;;;;;;8365180;28;20383;-64
2021/10/08 16:34:19;;;;;;;;;;;14.00;99.90;;;;;;8385392;28;20371;-64
2021/10/08 16:38:20;;;;;;;;;;;13.90;99.90;;;;;;8392841;28;19991;-64
2021/10/08 16:42:20;;;;;;;;;;;13.80;99.90;;;;;;8391791;28;19915;-63
2021/10/08 16:46:21;;;;;;;;;;;13.70;99.90;;;;;;8387922;28;20371;-64
2021/10/08 16:50:21;;;;;;;;;;;13.50;99.90;;;;;;8359680;28;19999;-64
2021/10/08 16:54:24;;;;;;;;;;;13.20;99.90;;;;;;8358202;28;19924;-64
2021/10/08 16:58:26;;;;;;;;;;;12.90;99.90;;;;;;8359487;28;20627;-65
2021/10/08 17:02:27;;;;;;;;;;;12.60;99.90;;;;;;8359402;28;19955;-64
2021/10/08 17:06:28;;;;;;;;;;;12.40;99.90;;;;;;8359075;28;19909;-64
2021/10/08 17:10:28;;;;;;;;;;;12.30;99.90;;;;;;8368112;28;19920;-64
2021/10/08 17:14:30;;;;;;;;;;;12.20;99.90;;;;;;8366211;28;19923;-64
2021/10/08 17:18:31;;;;;;;;;;;12.10;99.90;;;;;;8388405;28;20287;-64
2021/10/08 17:22:35;;;;;;;;;;;12.00;99.90;;;;;;8390730;28;19916;-64
2021/10/08 17:30:59;;;;;;;;;;;11.90;99.90;;;;;;8386908;28;20444;-64
2021/10/08 17:35:00;;;;;;;;;;;11.70;99.90;;;;;;8354398;28;19923;-64
2021/10/08 17:39:02;;;;;;;;;;;11.60;99.90;;;;;;8356132;28;20001;-64
2021/10/08 17:43:02;;;;;;;;;;;11.50;99.90;;;;;;8362093;28;19913;-64
2021/10/08 17:47:03;;;;;;;;;;;11.20;99.90;;;;;;8355135;28;19908;-64
2021/10/08 17:51:04;;;;;;;;;;;11.20;99.90;;;;;;8358933;28;19970;-64
2021/10/08 17:55:05;;;;;;;;;;;11.10;99.90;;;;;;8358526;28;19952;-64
2021/10/08 17:59:05;;;;;;;;;;;11.00;99.90;;;;;;8358952;28;19916;-64
2021/10/08 18:03:06;;;;;;;;;;;10.80;99.90;;;;;;8358391;28;19913;-64
2021/10/08 18:07:06;;;;;;;;;;;10.90;99.90;;;;;;8358683;28;19916;-64
2021/10/08 18:11:08;;;;;;;;;;;10.70;99.90;;;;;;8358894;28;20264;-64
2021/10/08 18:15:08;;;;;;;;;;;10.70;99.90;;;;;;8358096;28;19944;-64
2021/10/08 18:19:08;;;;;;;;;;;10.80;99.90;;;;;;8376111;28;20363;-64
2021/10/08 18:23:09;;;;;;;;;;;10.70;99.90;;;;;;8392900;28;20015;-64
2021/10/08 18:27:10;;;;;;;;;;;10.70;99.90;;;;;;8396751;28;19951;-64
2021/10/08 18:31:10;;;;;;;;;;;10.70;99.90;;;;;;8395914;28;19908;-64
2021/10/08 18:35:11;;;;;;;;;;;10.50;99.90;;;;;;8395322;28;20431;-64
2021/10/08 18:39:13;;;;;;;;;;;10.50;99.90;;;;;;8396857;28;19908;-64
2021/10/08 18:43:14;;;;;;;;;;;10.40;99.90;;;;;;8378085;28;20263;-64
2021/10/08 18:47:15;;;;;;;;;;;10.40;99.90;;;;;;8375873;28;19932;-64
2021/10/08 18:51:16;;;;;;;;;;;10.20;99.90;;;;;;8392141;28;19908;-64
2021/10/08 18:55:17;;;;;;;;;;;10.10;99.90;;;;;;8386937;28;19920;-64
2021/10/08 18:59:18;;;;;;;;;;;10.10;99.90;;;;;;8392217;28;19917;-65
2021/10/08 19:03:19;;;;;;;;;;;10.20;99.90;;;;;;8373818;28;19920;-64
2021/10/08 19:07:19;;;;;;;;;;;10.20;99.90;;;;;;8388642;28;19912;-64
2021/10/08 19:11:44;;;;;;;;;;;10.20;99.90;;;;;;8381004;28;20361;-63
2021/10/08 19:15:58;;;;;;;;;;;10.20;99.90;;;;;;8391062;28;20008;-64
2021/10/08 19:20:06;;;;;;;;;;;10.00;99.90;;;;;;8390890;28;19913;-64
2021/10/08 19:24:09;;;;;;;;;;;10.00;99.90;;;;;;8390459;28;19947;-64
2021/10/08 19:28:10;;;;;;;;;;;9.90;99.90;;;;;;8391094;28;20007;-65
2021/10/08 19:32:12;;;;;;;;;;;9.90;99.90;;;;;;8391542;28;19962;-64
2021/10/08 19:36:16;;;;;;;;;;;9.80;99.90;;;;;;8390524;28;19913;-65
2021/10/08 19:40:17;;;;;;;;;;;9.70;99.90;;;;;;8389621;28;20556;-64
2021/10/08 19:44:23;;;;;;;;;;;9.60;99.90;;;;;;8390822;28;19912;-64
2021/10/08 19:48:24;;;;;;;;;;;9.60;99.90;;;;;;8384240;28;19927;-64
2021/10/08 19:52:25;;;;;;;;;;;9.70;99.90;;;;;;8385836;28;19909;-64
2021/10/08 19:56:26;;;;;;;;;;;9.70;99.90;;;;;;8387127;28;19913;-64
2021/10/08 20:00:26;;;;;;;;;;;9.90;99.90;;;;;;8374905;28;19924;-64
2021/10/08 20:04:41;;;;;;;;;;;9.80;99.90;;;;;;8356780;28;20007;-64
2021/10/08 20:17:07;;;;;;;;;;;9.50;99.90;;;;;;8356991;28;19912;-64
2021/10/08 20:21:07;;;;;;;;;;;9.50;99.90;;;;;;8389722;28;19920;-65
2021/10/08 20:25:08;;;;;;;;;;;9.40;99.90;;;;;;8389359;28;19913;-64
2021/10/08 20:29:09;;;;;;;;;;;9.40;99.90;;;;;;8388139;28;19913;-64
2021/10/08 20:33:17;;;;;;;;;;;9.40;99.90;;;;;;8389221;28;19917;-64
2021/10/08 20:37:17;;;;;;;;;;;9.50;99.90;;;;;;8389311;28;19913;-63
2021/10/08 20:41:18;;;;;;;;;;;9.40;99.90;;;;;;8389052;28;19919;-64
2021/10/08 20:45:18;;;;;;;;;;;9.30;99.90;;;;;;8388829;28;20577;-64
2021/10/08 20:49:21;;;;;;;;;;;9.30;99.90;;;;;;8368607;28;20371;-64
2021/10/08 20:53:21;;;;;;;;;;;9.30;99.90;;;;;;8355757;28;19916;-64
2021/10/08 20:57:24;;;;;;;;;;;9.30;99.90;;;;;;8355891;28;19909;-64
2021/10/08 21:01:24;;;;;;;;;;;9.10;99.90;;;;;;8356355;28;19917;-64
2021/10/08 21:05:25;;;;;;;;;;;9.00;99.90;;;;;;8355551;28;20337;-64
2021/10/08 21:09:25;;;;;;;;;;;8.90;99.90;;;;;;8355744;28;19913;-64
2021/10/08 21:13:26;;;;;;;;;;;9.00;99.90;;;;;;8355738;28;20019;-63
2021/10/08 21:17:26;;;;;;;;;;;9.00;99.90;;;;;;8358577;28;19970;-64
2021/10/08 21:21:27;;;;;;;;;;;8.90;99.90;;;;;;8384450;28;19924;-64
2021/10/08 21:25:27;;;;;;;;;;;8.90;99.90;;;;;;8385837;28;19919;-64
2021/10/08 21:29:28;;;;;;;;;;;9.00;99.90;;;;;;8371616;28;19924;-64
2021/10/08 21:33:35;;;;;;;;;;;9.00;99.90;;;;;;8369275;28;19920;-63
2021/10/08 21:37:41;;;;;;;;;;;8.90;99.90;;;;;;8370130;28;19924;-64
2021/10/08 21:45:42;;;;;;;;;;;8.90;99.90;;;;;;8376181;28;20740;-64
2021/10/08 21:49:42;;;;;;;;;;;8.80;99.90;;;;;;8363027;28;19917;-64
2021/10/08 21:53:43;;;;;;;;;;;8.70;99.90;;;;;;8354146;28;19919;-64
2021/10/08 21:57:43;;;;;;;;;;;8.70;99.90;;;;;;8365536;28;19913;-65
2021/10/08 22:01:44;;;;;;;;;;;8.60;99.90;;;;;;8376948;28;20624;-65
2021/10/08 22:05:44;;;;;;;;;;;8.50;99.90;;;;;;8376249;28;20014;-65
2021/10/08 22:09:45;;;;;;;;;;;8.60;99.90;;;;;;8378339;28;19909;-65
2021/10/08 22:13:46;;;;;;;;;;;8.50;99.90;;;;;;8379521;28;19943;-66
2021/10/08 22:17:46;;;;;;;;;;;8.50;99.90;;;;;;8393628;28;19909;-65
2021/10/08 22:21:49;;;;;;;;;;;8.50;99.90;;;;;;8396777;28;19924;-65
2021/10/08 22:25:56;;;;;;;;;;;8.50;99.90;;;;;;8395884;28;20299;-65
2021/10/08 22:34:16;;;;;;;;;;;8.30;99.90;;;;;;8396940;28;20438;-65
2021/10/08 22:38:17;;;;;;;;;;;8.10;99.90;;;;;;8396363;28;19916;-65
2021/10/08 22:42:17;;;;;;;;;;;8.10;99.90;;;;;;8396796;28;19939;-65
2021/10/08 22:46:18;;;;;;;;;;;8.20;99.90;;;;;;8396214;28;20558;-65
2021/10/08 22:50:19;;;;;;;;;;;8.10;99.90;;;;;;8396316;28;19916;-65
2021/10/08 22:54:20;;;;;;;;;;;8.10;99.90;;;;;;8394567;28;19916;-65
2021/10/08 22:58:21;;;;;;;;;;;8.00;99.90;;;;;;8396044;28;19912;-65
2021/10/08 23:02:21;;;;;;;;;;;7.90;99.90;;;;;;8396162;28;19908;-65
2021/10/08 23:06:34;;;;;;;;;;;8.00;99.90;;;;;;8395595;28;19912;-65
2021/10/08 23:14:47;;;;;;;;;;;7.70;99.90;;;;;;8395844;28;20501;-65
2021/10/08 23:18:48;;;;;;;;;;;7.80;99.90;;;;;;8395298;28;19912;-65
2021/10/08 23:22:49;;;;;;;;;;;7.60;99.90;;;;;;8393479;28;19923;-65
2021/10/08 23:26:49;;;;;;;;;;;7.60;99.90;;;;;;8394949;28;19908;-65
2021/10/08 23:30:49;;;;;;;;;;;7.40;99.90;;;;;;8395188;28;20383;-65
2021/10/08 23:34:50;;;;;;;;;;;7.50;99.90;;;;;;8394457;28;19912;-65
2021/10/08 23:38:51;;;;;;;;;;;7.40;99.90;;;;;;8394895;28;19920;-65
2021/10/08 23:42:51;;;;;;;;;;;7.40;99.90;;;;;;8395036;28;19915;-65
2021/10/08 23:46:52;;;;;;;;;;;7.30;99.90;;;;;;8393270;28;19916;-65
2021/10/08 23:50:52;;;;;;;;;;;7.20;99.90;;;;;;8394503;28;19909;-65
2021/10/08 23:54:53;;;;;;;;;;;7.20;99.90;;;;;;8394192;28;19912;-65
2021/10/08 23:58:53;;;;;;;;;;;7.20;99.90;;;;;;8394753;28;20380;-65
